createdAt,value
2023-02-22T00:02:45.153Z,36.05
2023-02-22T00:05:32.694Z,37.10
2023-02-22T00:08:22.456Z,36.33
2023-02-22T00:11:10.162Z,35.25
2023-02-22T00:13:58.067Z,33.40
2023-02-22T00:16:46.877Z,34.22
2023-02-22T00:19:34.100Z,32.47
2023-02-22T00:22:21.599Z,33.35
2023-02-22T00:25:09.837Z,33.60
2023-02-22T00:27:57.372Z,32.78
2023-02-22T00:30:45.045Z,30.83
2023-02-22T00:33:34.306Z,31.70
2023-02-22T00:36:21.764Z,29.27
2023-02-22T00:39:09.441Z,30.88
2023-02-22T00:41:56.926Z,29.38
2023-02-22T00:44:44.610Z,21.75
2023-02-22T00:47:32.032Z,20.98
2023-02-22T00:50:21.992Z,21.23
2023-02-22T00:53:10.368Z,21.48
2023-02-22T00:55:57.532Z,18.75
2023-02-22T00:58:45.722Z,20.42
2023-02-22T01:01:33.460Z,20.90
2023-02-22T01:04:20.747Z,21.38
2023-02-22T01:07:12.287Z,22.27
2023-02-22T01:10:02.721Z,20.92
2023-02-22T01:12:53.391Z,21.33
2023-02-22T01:15:46.069Z,21.75
2023-02-22T01:18:36.163Z,22.73
2023-02-22T01:21:26.572Z,21.70
2023-02-22T01:24:18.754Z,20.13
2023-02-22T01:27:08.813Z,21.25
2023-02-22T01:29:58.989Z,22.83
2023-02-22T01:32:48.208Z,19.00
2023-02-22T01:35:41.627Z,22.13
2023-02-22T01:38:30.502Z,21.08
2023-02-22T01:41:22.121Z,21.33
2023-02-22T01:44:25.652Z,20.42
2023-02-22T01:47:15.512Z,20.02
2023-02-22T01:50:06.147Z,20.77
2023-02-22T01:52:55.630Z,30.40
2023-02-22T01:55:45.874Z,30.30
2023-02-22T01:58:39.176Z,30.10
2023-02-22T02:01:27.313Z,31.08
2023-02-22T02:04:20.689Z,28.17
2023-02-22T02:07:10.009Z,26.65
2023-02-22T02:10:02.869Z,20.05
2023-02-22T02:12:55.759Z,18.67
2023-02-22T02:15:50.566Z,17.17
2023-02-22T02:18:41.028Z,18.50
2023-02-22T02:22:09.184Z,18.05
2023-02-22T02:25:40.033Z,19.33
2023-02-22T02:28:53.015Z,18.75
2023-02-22T02:32:18.117Z,17.08
2023-02-22T02:35:14.907Z,18.50
2023-02-22T02:38:13.550Z,30.33
2023-02-22T02:41:12.966Z,29.27
2023-02-22T02:44:08.326Z,29.83
2023-02-22T02:47:02.734Z,27.50
2023-02-22T02:49:57.610Z,29.33
2023-02-22T02:52:48.997Z,30.02
2023-02-22T02:55:40.255Z,30.30
2023-02-22T02:58:30.615Z,28.02
2023-02-22T03:01:35.358Z,28.02
2023-02-22T03:04:38.913Z,26.50
2023-02-22T03:07:43.801Z,25.20
2023-02-22T03:10:47.936Z,18.95
2023-02-22T03:13:47.844Z,17.77
2023-02-22T03:16:45.528Z,19.90
2023-02-22T03:19:40.573Z,17.08
2023-02-22T03:22:35.837Z,15.95
2023-02-22T05:21:13.611Z,14.00
2023-02-22T05:24:01.192Z,15.88
2023-02-22T05:26:48.645Z,15.73
2023-02-22T05:29:38.719Z,17.75
2023-02-22T05:32:27.612Z,16.80
2023-02-22T05:35:16.749Z,18.70
2023-02-22T05:38:04.287Z,16.98
2023-02-22T05:40:51.785Z,18.63
2023-02-22T05:43:39.618Z,17.75
2023-02-22T05:46:27.287Z,18.50
2023-02-22T05:49:14.532Z,17.95
2023-02-22T05:52:03.730Z,20.08
